This is the latest recevied weather packets stored in our database for station/object OK2ILA-10. If no packets are shown the sender has not sent any weather packets the latest 10 day(s).
| Time | Temp. | Humidity | Pressure | Rain* | Wind** | Luminosity | Snow |
|---|---|---|---|---|---|---|---|
| 1777482968 | 6.67° C | 43% | 1027 hPa | - | - | - | - |
| 1777480572 | 6.67° C | 41% | 1026.8 hPa | - | - | - | - |
| 1777479972 | 7.78° C | 41% | 1026.7 hPa | - | - | - | - |
| 1777479967 | 7.78° C | 41% | 1026.7 hPa | - | - | - | - |
| 1777477566 | 8.33° C | 39% | 1026.7 hPa | - | - | - | - |
| 1777473368 | 9.44° C | 36% | 1026.2 hPa | - | - | - | - |
| 1777472198 | 8.89° C | 37% | 1026.1 hPa | - | - | - | - |
| 1777472194 | 8.89° C | 37% | 1026.1 hPa | - | - | - | - |
| 1777471598 | 9.44° C | 36% | 1026.1 hPa | - | - | - | - |
| 1777470998 | 10° C | 36% | 1026.1 hPa | - | - | - | - |
| 1777470994 | 10° C | 36% | 1026.1 hPa | - | - | - | - |
| 1777468597 | 10° C | 37% | 1025.9 hPa | - | - | - | - |
| 1777467993 | 9.44° C | 38% | 1025.8 hPa | - | - | - | - |
| 1777466192 | 10° C | 38% | 1025.8 hPa | - | - | - | - |
| 1777465596 | 11.11° C | 40% | 1025.9 hPa | - | - | - | - |
| 1777465592 | 11.11° C | 40% | 1025.9 hPa | - | - | - | - |
| 1777464995 | 10.56° C | 39% | 1025.9 hPa | - | - | - | - |
| 1777464992 | 10.56° C | 39% | 1025.9 hPa | - | - | - | - |
| 1777464395 | 10° C | 43% | 1025.9 hPa | - | - | - | - |
| 1777462595 | 10° C | 44% | 1025.8 hPa | - | - | - | - |
| 1777462591 | 10° C | 44% | 1025.8 hPa | - | - | - | - |
| 1777461995 | 8.89° C | 46% | 1025.9 hPa | - | - | - | - |
| 1777461991 | 8.89° C | 46% | 1025.9 hPa | - | - | - | - |
| 1777461394 | 10.56° C | 44% | 1026 hPa | - | - | - | - |
| 1777461390 | 10.56° C | 44% | 1026 hPa | - | - | - | - |
* Rain since midnight (hover to see other rain measurements)
** Current wind speed in m/s (hover to see current wind gust speed)